createdAt,value
2017-11-09T00:00:05.076Z,51.43
2017-11-09T00:02:34.940Z,49.37
2017-11-09T00:05:10.604Z,50.80
2017-11-09T00:07:40.435Z,49.80
2017-11-09T00:10:10.279Z,56.80
2017-11-09T00:12:40.153Z,56.07
2017-11-09T00:15:09.970Z,56.20
2017-11-09T00:17:39.818Z,54.03
2017-11-09T00:20:09.647Z,55.00
2017-11-09T00:22:39.469Z,55.63
2017-11-09T00:25:09.315Z,53.30
2017-11-09T00:27:39.139Z,55.80
2017-11-09T00:30:08.985Z,51.60
2017-11-09T00:32:38.796Z,54.10
2017-11-09T00:35:08.707Z,64.37
2017-11-09T00:37:38.554Z,61.10
2017-11-09T00:40:08.403Z,50.43
2017-11-09T00:42:38.253Z,56.40
2017-11-09T00:45:08.088Z,51.00
2017-11-09T00:47:37.940Z,47.77
2017-11-09T00:50:07.758Z,47.37
2017-11-09T00:52:37.620Z,46.47
2017-11-09T00:55:07.443Z,47.30
2017-11-09T00:57:37.858Z,48.47
2017-11-09T01:00:07.685Z,47.20
2017-11-09T01:02:37.515Z,48.93
2017-11-09T01:05:07.340Z,44.80
2017-11-09T01:07:37.274Z,49.40
2017-11-09T01:10:07.191Z,47.97
2017-11-09T01:12:38.436Z,49.93
2017-11-09T01:15:08.579Z,47.00
2017-11-09T01:17:38.450Z,51.00
2017-11-09T01:20:08.278Z,46.87
2017-11-09T01:22:38.095Z,45.77
2017-11-09T01:25:08.106Z,44.50
2017-11-09T01:27:38.033Z,47.70
2017-11-09T01:30:07.863Z,50.20
2017-11-09T01:32:37.710Z,48.10
2017-11-09T01:35:07.577Z,46.47
2017-11-09T01:37:37.478Z,49.87
2017-11-09T01:40:07.315Z,52.20
2017-11-09T01:42:37.146Z,52.57
2017-11-09T01:45:06.986Z,48.70
2017-11-09T01:47:36.836Z,47.27
2017-11-09T01:50:06.663Z,43.47
2017-11-09T01:52:36.518Z,47.33
2017-11-09T01:55:06.342Z,45.90
2017-11-09T01:57:36.179Z,50.63
2017-11-09T02:00:06.008Z,52.30
2017-11-09T02:02:35.910Z,52.70
2017-11-09T02:05:05.809Z,45.70
2017-11-09T02:07:35.648Z,53.87
2017-11-09T02:10:05.512Z,51.70
2017-11-09T02:12:35.348Z,53.50
2017-11-09T02:15:05.208Z,53.10
2017-11-09T02:17:35.052Z,56.40
2017-11-09T02:20:04.912Z,62.00
2017-11-09T02:22:34.754Z,53.57
2017-11-09T02:25:04.642Z,50.10
2017-11-09T02:27:34.482Z,50.40
2017-11-09T02:30:04.336Z,49.37
2017-11-09T02:32:34.167Z,57.20
2017-11-09T02:35:03.995Z,53.13
2017-11-09T02:37:33.863Z,55.27
2017-11-09T02:40:04.581Z,65.57
2017-11-09T02:42:34.425Z,55.80
2017-11-09T02:45:04.242Z,53.20
2017-11-09T02:47:34.114Z,52.23
2017-11-09T02:50:03.937Z,50.60
2017-11-09T02:52:33.808Z,46.83
2017-11-09T02:55:03.639Z,57.43
2017-11-09T02:57:33.485Z,53.97
2017-11-09T03:00:03.315Z,53.17
2017-11-09T03:02:33.143Z,55.77
2017-11-09T03:05:03.030Z,48.97
2017-11-09T03:07:32.907Z,51.60
2017-11-09T03:10:02.744Z,50.97
2017-11-09T03:12:32.671Z,55.40
2017-11-09T03:15:02.520Z,51.73
2017-11-09T03:17:32.355Z,52.40
2017-11-09T03:20:02.204Z,53.80
2017-11-09T03:22:32.126Z,50.93
2017-11-09T03:25:01.966Z,51.70
2017-11-09T03:27:31.782Z,46.87
2017-11-09T03:30:02.015Z,49.27
2017-11-09T03:32:31.842Z,51.40
2017-11-09T03:35:01.676Z,49.83
2017-11-09T03:37:31.517Z,48.00
2017-11-09T03:40:01.980Z,52.13
2017-11-09T03:42:31.837Z,52.10
2017-11-09T03:45:01.653Z,52.73
2017-11-09T03:47:31.487Z,49.70
2017-11-09T03:50:01.316Z,50.67
2017-11-09T03:52:31.175Z,51.40
2017-11-09T03:55:00.992Z,49.60
2017-11-09T03:57:30.920Z,45.90
2017-11-09T04:00:00.770Z,48.67
2017-11-09T04:02:30.636Z,58.80
2017-11-09T04:05:00.484Z,51.30
2017-11-09T04:07:30.370Z,55.80
2017-11-09T04:10:00.201Z,49.43
2017-11-09T04:12:30.040Z,51.73
2017-11-09T04:15:00.000Z,57.50
2017-11-09T04:17:29.918Z,48.20
2017-11-09T04:19:59.841Z,47.70
2017-11-09T04:22:29.678Z,55.47
2017-11-09T04:24:59.522Z,53.53
2017-11-09T04:27:29.392Z,51.53
2017-11-09T04:29:59.243Z,52.20
2017-11-09T04:32:29.067Z,57.27
2017-11-09T04:34:58.912Z,56.97
2017-11-09T04:37:28.767Z,58.37
2017-11-09T04:39:58.604Z,49.53
2017-11-09T04:42:28.471Z,57.67
2017-11-09T04:44:58.355Z,63.60
2017-11-09T04:47:28.184Z,56.40
2017-11-09T04:49:58.022Z,58.77
2017-11-09T04:52:27.866Z,62.37
2017-11-09T04:54:57.700Z,57.50
2017-11-09T04:57:27.557Z,55.07
2017-11-09T04:59:57.377Z,53.17
2017-11-09T05:02:27.216Z,53.03
2017-11-09T05:04:57.063Z,51.77
2017-11-09T05:07:26.918Z,57.03
2017-11-09T05:09:56.739Z,53.27
2017-11-09T05:12:26.932Z,52.73
2017-11-09T05:14:56.778Z,51.93
2017-11-09T05:17:26.607Z,58.13
2017-11-09T05:19:56.504Z,60.60
2017-11-09T05:22:26.315Z,51.10
2017-11-09T05:24:56.159Z,55.67
2017-11-09T05:27:25.997Z,61.63
2017-11-09T05:29:55.850Z,49.83
2017-11-09T05:32:25.708Z,51.53
2017-11-09T05:34:55.561Z,50.70
2017-11-09T05:37:25.415Z,51.63
2017-11-09T05:39:55.670Z,51.33
2017-11-09T05:42:25.524Z,48.27
2017-11-09T05:44:55.351Z,51.07
2017-11-09T05:47:25.195Z,51.90
2017-11-09T05:49:55.323Z,55.80
2017-11-09T05:52:25.177Z,62.47
2017-11-09T05:54:54.986Z,57.87
2017-11-09T05:57:24.835Z,55.87
2017-11-09T05:59:54.661Z,50.90
2017-11-09T06:02:24.518Z,55.47
2017-11-09T06:04:54.349Z,61.23
2017-11-09T06:07:24.250Z,58.90
2017-11-09T06:09:54.055Z,49.97
2017-11-09T06:12:23.915Z,53.70
2017-11-09T06:14:53.759Z,58.80
2017-11-09T06:17:23.575Z,55.80
2017-11-09T06:19:53.507Z,64.77
2017-11-09T06:22:23.512Z,63.67
2017-11-09T06:24:53.430Z,53.03
2017-11-09T06:27:23.285Z,63.53
2017-11-09T06:29:53.150Z,56.77
2017-11-09T06:32:22.992Z,59.03
2017-11-09T06:34:52.855Z,63.30
2017-11-09T06:37:22.715Z,58.97
2017-11-09T06:39:52.965Z,73.73
2017-11-09T06:42:22.982Z,77.20
2017-11-09T06:44:52.807Z,66.23
2017-11-09T06:47:22.658Z,64.77
2017-11-09T06:49:52.475Z,60.20
2017-11-09T06:52:22.332Z,65.70
2017-11-09T06:54:52.156Z,67.80
2017-11-09T06:57:22.007Z,63.50
2017-11-09T06:59:51.833Z,66.30
2017-11-09T07:02:21.675Z,77.10
2017-11-09T07:04:51.493Z,72.63
2017-11-09T07:07:21.483Z,69.90
2017-11-09T07:09:51.306Z,72.93
2017-11-09T07:12:21.175Z,69.13
2017-11-09T07:14:51.040Z,66.50
2017-11-09T07:17:20.873Z,68.37
2017-11-09T07:19:52.656Z,68.73
2017-11-09T07:22:22.899Z,69.70
2017-11-09T07:24:52.769Z,78.67
2017-11-09T07:27:22.612Z,73.53
2017-11-09T07:29:52.467Z,77.77
2017-11-09T07:32:22.293Z,67.47
2017-11-09T07:34:52.123Z,75.50
2017-11-09T07:37:21.944Z,71.10
2017-11-09T07:39:51.803Z,73.20
2017-11-09T07:42:21.627Z,72.63
2017-11-09T07:44:51.513Z,70.50
2017-11-09T07:47:21.339Z,76.27
2017-11-09T07:49:51.206Z,66.03
2017-11-09T07:52:21.091Z,69.73
2017-11-09T07:54:51.000Z,69.07
2017-11-09T07:57:20.849Z,66.57
2017-11-09T07:59:50.662Z,74.70
2017-11-09T08:02:20.541Z,77.53
2017-11-09T08:04:50.357Z,84.97
2017-11-09T08:07:20.207Z,71.83
2017-11-09T08:09:50.299Z,59.60
2017-11-09T08:12:20.167Z,64.40
2017-11-09T08:14:50.013Z,62.80
2017-11-09T08:17:19.864Z,68.60
2017-11-09T08:19:49.724Z,73.27
2017-11-09T08:22:19.576Z,57.40
2017-11-09T08:24:49.627Z,58.00
2017-11-09T08:27:23.260Z,65.60
2017-11-09T08:29:55.353Z,62.30
2017-11-09T08:32:30.095Z,66.57
2017-11-09T08:35:00.135Z,70.17
2017-11-09T08:37:29.959Z,63.53
2017-11-09T08:39:59.815Z,68.90
2017-11-09T08:42:29.637Z,78.47
2017-11-09T08:44:59.488Z,75.73
2017-11-09T08:47:29.299Z,88.03
2017-11-09T08:49:59.161Z,77.90
2017-11-09T08:52:28.984Z,81.23
2017-11-09T08:54:58.828Z,83.57
2017-11-09T08:57:28.650Z,79.83
2017-11-09T08:59:58.521Z,74.23
2017-11-09T09:02:28.340Z,66.30
2017-11-09T09:04:58.176Z,64.43
2017-11-09T09:07:28.048Z,76.93
2017-11-09T09:09:57.876Z,76.23
2017-11-09T09:12:27.713Z,67.97
2017-11-09T09:14:57.537Z,68.97
2017-11-09T09:17:27.374Z,71.70
2017-11-09T09:19:57.204Z,71.87
2017-11-09T09:22:27.066Z,67.10
2017-11-09T09:24:58.659Z,76.53
2017-11-09T09:27:31.266Z,69.20
2017-11-09T09:30:01.906Z,68.20
2017-11-09T09:32:35.833Z,69.43
2017-11-09T09:35:16.884Z,67.67
2017-11-09T09:37:51.590Z,60.57
2017-11-09T09:40:22.752Z,64.87
2017-11-09T09:42:52.819Z,70.50
2017-11-09T09:45:22.658Z,71.17
2017-11-09T09:47:52.477Z,67.53
2017-11-09T09:50:22.339Z,64.27
2017-11-09T09:52:52.147Z,59.93
2017-11-09T09:55:21.998Z,65.47
2017-11-09T09:57:51.826Z,66.73
2017-11-09T10:00:21.668Z,63.43
2017-11-09T10:02:51.499Z,65.40
2017-11-09T10:05:21.358Z,66.20
2017-11-09T10:07:51.168Z,65.30
2017-11-09T10:10:21.028Z,67.23
2017-11-09T10:12:50.881Z,66.73
2017-11-09T10:15:20.731Z,62.83
2017-11-09T10:17:50.606Z,58.63
2017-11-09T10:20:20.461Z,64.07
2017-11-09T10:22:50.276Z,62.53
2017-11-09T10:25:20.154Z,56.10
2017-11-09T10:27:50.026Z,54.83
2017-11-09T10:30:19.884Z,53.40
2017-11-09T10:32:49.740Z,54.37
2017-11-09T10:35:19.630Z,53.67
2017-11-09T10:37:49.460Z,56.53
2017-11-09T10:40:19.272Z,54.40
2017-11-09T10:42:49.139Z,54.60
2017-11-09T10:45:18.954Z,47.80
2017-11-09T10:47:48.885Z,50.07
2017-11-09T10:50:18.703Z,50.67
2017-11-09T10:52:48.574Z,50.10
2017-11-09T10:55:18.417Z,48.63
2017-11-09T10:57:48.269Z,47.60
2017-11-09T11:00:18.111Z,46.77
2017-11-09T11:02:47.964Z,47.77
2017-11-09T11:05:17.799Z,47.17
2017-11-09T11:07:47.635Z,46.30
2017-11-09T11:10:17.475Z,46.17
2017-11-09T11:12:47.386Z,46.20
2017-11-09T11:15:17.283Z,41.60
2017-11-09T11:17:47.117Z,50.83
2017-11-09T11:20:16.964Z,45.53
2017-11-09T11:22:46.814Z,47.60
2017-11-09T11:25:16.640Z,43.90
2017-11-09T11:27:46.482Z,49.03
2017-11-09T11:30:16.315Z,36.30
2017-11-09T11:32:46.171Z,43.87
2017-11-09T11:35:15.990Z,41.33
2017-11-09T11:37:45.877Z,41.40
2017-11-09T11:40:15.687Z,45.47
2017-11-09T11:42:45.548Z,47.57
2017-11-09T11:45:15.387Z,46.93
2017-11-09T11:47:45.236Z,39.97
2017-11-09T11:50:15.080Z,39.93
2017-11-09T11:52:44.926Z,39.30
2017-11-09T11:55:14.759Z,42.53
2017-11-09T11:57:44.615Z,44.50
2017-11-09T12:00:14.457Z,41.57
2017-11-09T12:02:44.314Z,43.23
2017-11-09T12:05:16.111Z,41.50
2017-11-09T12:07:45.983Z,44.87
2017-11-09T12:10:15.802Z,42.77
2017-11-09T12:12:45.650Z,46.10
2017-11-09T12:15:15.475Z,40.93
2017-11-09T12:17:45.315Z,46.23
2017-11-09T12:20:15.266Z,41.47
2017-11-09T12:22:45.121Z,44.50
2017-11-09T12:25:14.983Z,40.60
2017-11-09T12:27:44.852Z,43.83
2017-11-09T12:30:14.730Z,47.30
2017-11-09T12:32:44.600Z,47.60
2017-11-09T12:35:14.543Z,45.77
2017-11-09T12:37:44.742Z,48.47
2017-11-09T12:40:14.606Z,51.30
2017-11-09T12:42:44.436Z,59.37
2017-11-09T12:45:14.304Z,51.90
2017-11-09T12:47:44.155Z,52.30
2017-11-09T12:50:14.003Z,51.70
2017-11-09T12:52:43.835Z,47.97
2017-11-09T12:55:13.694Z,53.70
2017-11-09T12:57:43.516Z,49.73
2017-11-09T13:00:13.380Z,49.00
2017-11-09T13:02:43.225Z,55.00
2017-11-09T13:05:13.099Z,46.20
2017-11-09T13:07:43.012Z,46.03
2017-11-09T13:10:12.891Z,49.33
2017-11-09T13:12:42.725Z,48.43
2017-11-09T13:15:12.599Z,52.17
2017-11-09T13:17:42.479Z,57.23
2017-11-09T13:20:12.310Z,41.27
2017-11-09T13:22:44.100Z,50.13
2017-11-09T13:25:13.945Z,55.50
2017-11-09T13:27:43.794Z,50.93
2017-11-09T13:30:13.652Z,51.63
2017-11-09T13:32:43.510Z,48.30
2017-11-09T13:35:13.324Z,50.90
2017-11-09T13:37:43.165Z,52.10
2017-11-09T13:40:12.995Z,51.83
2017-11-09T13:42:42.865Z,47.50
2017-11-09T13:45:12.707Z,51.30
2017-11-09T13:47:42.598Z,51.93
2017-11-09T13:50:12.427Z,52.77
2017-11-09T13:52:42.273Z,51.93
2017-11-09T13:55:12.153Z,49.17
2017-11-09T13:57:41.975Z,47.03
2017-11-09T14:00:12.605Z,54.13
2017-11-09T14:02:42.455Z,52.57
2017-11-09T14:05:15.121Z,55.27
2017-11-09T14:07:44.952Z,55.07
2017-11-09T14:10:14.818Z,58.97
2017-11-09T14:12:44.652Z,48.77
2017-11-09T14:15:14.534Z,49.70
2017-11-09T14:17:44.371Z,46.63
2017-11-09T14:20:14.223Z,51.93
2017-11-09T14:22:44.075Z,50.80
2017-11-09T14:25:13.887Z,54.73
2017-11-09T14:27:43.759Z,57.53
2017-11-09T14:30:13.575Z,50.73
2017-11-09T14:32:43.451Z,50.03
2017-11-09T14:35:13.273Z,56.00
2017-11-09T14:37:43.916Z,48.50
2017-11-09T14:40:13.744Z,46.40
2017-11-09T14:42:43.597Z,51.00
2017-11-09T14:45:13.469Z,49.80
2017-11-09T14:47:43.307Z,53.07
2017-11-09T14:50:13.149Z,50.17
2017-11-09T14:52:43.090Z,50.03
2017-11-09T14:55:12.999Z,49.83
2017-11-09T14:57:42.822Z,46.80
2017-11-09T15:00:12.692Z,51.17
2017-11-09T15:02:42.590Z,53.50
2017-11-09T15:05:12.454Z,50.47
2017-11-09T15:07:42.367Z,50.10
2017-11-09T15:10:12.282Z,49.40
2017-11-09T15:12:42.187Z,46.67
2017-11-09T15:15:12.020Z,49.47
2017-11-09T15:17:41.891Z,49.63
2017-11-09T15:20:11.744Z,57.27
2017-11-09T15:22:41.632Z,53.37
2017-11-09T15:25:11.430Z,51.87
2017-11-09T15:27:41.279Z,57.17
2017-11-09T15:30:11.131Z,50.00
2017-11-09T15:32:40.980Z,49.40
2017-11-09T15:35:10.790Z,52.17
2017-11-09T15:37:40.731Z,54.60
2017-11-09T15:40:10.631Z,47.40
2017-11-09T15:42:40.485Z,51.73
2017-11-09T15:45:10.346Z,47.00
2017-11-09T15:47:40.270Z,55.30
2017-11-09T15:50:10.478Z,47.80
2017-11-09T15:52:40.430Z,50.70
2017-11-09T15:55:10.336Z,51.30
2017-11-09T15:57:40.227Z,48.73
2017-11-09T16:00:10.112Z,48.77
2017-11-09T16:02:39.936Z,48.67
2017-11-09T16:05:09.784Z,48.70
2017-11-09T16:07:39.686Z,49.40
2017-11-09T16:10:09.551Z,53.27
2017-11-09T16:12:39.557Z,53.83
2017-11-09T16:15:09.483Z,52.97
2017-11-09T16:17:40.071Z,54.67
2017-11-09T16:20:10.176Z,53.53
2017-11-09T16:22:40.011Z,52.67
2017-11-09T16:25:09.903Z,57.80
2017-11-09T16:27:39.881Z,54.00
2017-11-09T16:30:09.681Z,49.73
2017-11-09T16:32:39.543Z,59.20
2017-11-09T16:35:09.398Z,55.00
2017-11-09T16:37:39.222Z,60.57
2017-11-09T16:40:09.129Z,54.13
2017-11-09T16:42:42.999Z,52.73
2017-11-09T16:45:12.847Z,59.87
2017-11-09T16:47:42.793Z,55.67
2017-11-09T16:50:12.747Z,55.10
2017-11-09T16:52:45.274Z,54.03
2017-11-09T16:55:15.143Z,58.23
2017-11-09T16:57:44.987Z,61.00
2017-11-09T17:00:14.839Z,61.80
2017-11-09T17:02:44.648Z,63.00
2017-11-09T17:05:14.481Z,53.07
2017-11-09T17:07:44.425Z,53.40
2017-11-09T17:10:14.228Z,53.53
2017-11-09T17:12:44.084Z,53.43
2017-11-09T17:15:15.680Z,60.03
2017-11-09T17:17:45.555Z,53.77
2017-11-09T17:20:15.397Z,50.13
2017-11-09T17:22:45.269Z,57.27
2017-11-09T17:25:15.099Z,57.97
2017-11-09T17:27:44.952Z,56.00
2017-11-09T17:30:14.781Z,60.17
2017-11-09T17:32:44.664Z,50.13
2017-11-09T17:35:14.483Z,57.17
2017-11-09T17:37:44.472Z,52.03
2017-11-09T17:40:18.294Z,61.00
2017-11-09T17:43:06.040Z,55.93
2017-11-09T17:45:35.861Z,50.73
2017-11-09T17:48:05.743Z,55.67
2017-11-09T17:50:35.602Z,54.87
2017-11-09T17:53:05.432Z,57.90
2017-11-09T17:55:35.278Z,58.90
2017-11-09T17:58:05.130Z,64.60
2017-11-09T18:00:35.000Z,63.07
2017-11-09T18:03:04.864Z,67.03
2017-11-09T18:05:34.729Z,52.70
2017-11-09T18:08:04.599Z,52.57
2017-11-09T18:10:34.431Z,56.80
2017-11-09T18:13:04.248Z,65.63
2017-11-09T18:15:34.380Z,63.10
2017-11-09T18:18:04.244Z,59.47
2017-11-09T18:20:34.082Z,58.67
2017-11-09T18:23:18.827Z,56.50
2017-11-09T18:25:48.683Z,51.03
2017-11-09T18:28:18.515Z,58.83
2017-11-09T18:30:48.610Z,54.43
2017-11-09T18:33:18.447Z,53.57
2017-11-09T18:35:48.311Z,54.50
2017-11-09T18:38:18.144Z,65.30
2017-11-09T18:40:47.964Z,56.27
2017-11-09T18:43:17.854Z,49.27
2017-11-09T18:45:47.743Z,51.73
2017-11-09T18:48:17.607Z,55.47
2017-11-09T18:50:47.534Z,52.57
2017-11-09T18:53:17.378Z,54.43
2017-11-09T18:55:47.208Z,56.80
2017-11-09T18:58:17.152Z,55.73
2017-11-09T19:00:49.820Z,52.77
2017-11-09T19:03:19.832Z,57.90
2017-11-09T19:05:49.640Z,51.63
2017-11-09T19:08:19.555Z,55.60
2017-11-09T19:10:49.384Z,49.13
2017-11-09T19:13:19.212Z,58.97
2017-11-09T19:15:49.056Z,58.13
2017-11-09T19:18:18.865Z,53.50
2017-11-09T19:20:48.711Z,59.30
2017-11-09T19:23:18.576Z,56.50
2017-11-09T19:25:48.976Z,57.57
2017-11-09T19:28:18.809Z,50.60
2017-11-09T19:30:48.667Z,53.57
2017-11-09T19:33:18.505Z,52.10
2017-11-09T19:35:48.358Z,55.07
2017-11-09T19:38:18.176Z,52.33
2017-11-09T19:40:48.190Z,48.77
2017-11-09T19:43:18.170Z,53.10
2017-11-09T19:45:48.233Z,51.83
2017-11-09T19:48:18.815Z,52.53
2017-11-09T19:50:48.659Z,54.33
2017-11-09T19:53:19.320Z,51.57
2017-11-09T19:55:49.683Z,51.77
2017-11-09T19:58:19.571Z,52.07
2017-11-09T20:00:49.980Z,50.63
2017-11-09T20:03:19.863Z,52.30
2017-11-09T20:05:49.743Z,50.37
2017-11-09T20:08:19.642Z,50.53
2017-11-09T20:10:49.510Z,51.57
2017-11-09T20:13:19.363Z,51.87
2017-11-09T20:15:49.194Z,51.40
2017-11-09T20:18:19.078Z,54.47
2017-11-09T20:20:48.903Z,51.33
2017-11-09T20:23:18.890Z,49.43
2017-11-09T20:25:48.771Z,48.50
2017-11-09T20:28:18.601Z,50.27
2017-11-09T20:30:48.509Z,52.57
2017-11-09T20:33:18.362Z,58.33
2017-11-09T20:35:48.322Z,51.60
2017-11-09T20:38:18.228Z,54.13
2017-11-09T20:40:48.259Z,46.20
2017-11-09T20:43:18.110Z,53.97
2017-11-09T20:45:47.977Z,50.07
2017-11-09T20:48:17.829Z,49.90
2017-11-09T20:50:47.705Z,50.93
2017-11-09T20:53:17.580Z,49.17
2017-11-09T20:55:47.428Z,48.47
2017-11-09T20:58:17.327Z,50.07
2017-11-09T21:00:47.170Z,45.83
2017-11-09T21:03:17.029Z,42.57
2017-11-09T21:05:46.966Z,48.17
2017-11-09T21:08:16.791Z,45.67
2017-11-09T21:10:46.707Z,42.93
2017-11-09T21:13:16.614Z,47.00
2017-11-09T21:15:46.461Z,44.27
2017-11-09T21:18:16.339Z,43.63
2017-11-09T21:20:46.164Z,43.07
2017-11-09T21:23:16.061Z,40.40
2017-11-09T21:25:45.904Z,41.87
2017-11-09T21:28:15.787Z,44.53
2017-11-09T21:30:45.647Z,41.70
2017-11-09T21:33:15.615Z,39.97
2017-11-09T21:35:45.442Z,45.20
2017-11-09T21:38:15.293Z,41.77
2017-11-09T21:40:45.196Z,44.17
2017-11-09T21:43:15.031Z,33.53
2017-11-09T21:45:45.727Z,39.97
2017-11-09T21:48:15.624Z,47.57
2017-11-09T21:50:45.472Z,43.83
2017-11-09T21:53:15.296Z,51.17
2017-11-09T21:55:45.244Z,48.20
2017-11-09T21:58:15.072Z,43.20
2017-11-09T22:00:44.944Z,45.50
2017-11-09T22:03:14.803Z,46.17
2017-11-09T22:05:44.683Z,49.83
2017-11-09T22:08:14.527Z,45.27
2017-11-09T22:10:44.383Z,45.23
2017-11-09T22:13:14.267Z,44.33
2017-11-09T22:15:44.176Z,45.50
2017-11-09T22:18:14.038Z,52.17
2017-11-09T22:20:43.863Z,41.50
2017-11-09T22:23:13.718Z,38.97
2017-11-09T22:25:43.574Z,40.20
2017-11-09T22:28:13.430Z,43.43
2017-11-09T22:30:43.252Z,41.37
2017-11-09T22:33:13.146Z,42.70
2017-11-09T22:35:42.999Z,40.00
2017-11-09T22:38:12.870Z,37.90
2017-11-09T22:40:42.762Z,45.37
2017-11-09T22:43:12.601Z,41.30
2017-11-09T22:45:42.466Z,41.37
2017-11-09T22:48:12.306Z,44.20
2017-11-09T22:50:42.142Z,44.27
2017-11-09T22:53:12.390Z,46.80
2017-11-09T22:55:42.273Z,43.20
2017-11-09T22:58:12.114Z,46.63
2017-11-09T23:00:41.977Z,41.20
2017-11-09T23:03:11.800Z,39.37
2017-11-09T23:05:41.638Z,54.20
2017-11-09T23:08:11.515Z,60.30
2017-11-09T23:10:41.359Z,56.07
2017-11-09T23:13:11.217Z,51.40
2017-11-09T23:15:41.048Z,48.07
2017-11-09T23:18:10.897Z,56.40
2017-11-09T23:20:40.709Z,50.40
2017-11-09T23:23:10.546Z,57.43
2017-11-09T23:25:40.359Z,53.37
2017-11-09T23:28:10.213Z,50.37
2017-11-09T23:30:40.027Z,49.23
2017-11-09T23:33:09.959Z,56.30
2017-11-09T23:35:39.854Z,51.77
2017-11-09T23:38:09.771Z,48.07
2017-11-09T23:40:39.602Z,54.80
2017-11-09T23:43:09.474Z,53.17
2017-11-09T23:45:39.326Z,57.53
2017-11-09T23:48:09.172Z,54.27
2017-11-09T23:50:38.989Z,53.97
2017-11-09T23:53:08.845Z,52.47
2017-11-09T23:55:38.755Z,48.80
2017-11-09T23:58:08.645Z,47.50
